createdAt,value
2022-08-03T00:00:20.715Z,17.99
2022-08-03T00:05:38.458Z,17.95
2022-08-03T00:10:41.984Z,17.85
2022-08-03T00:15:45.659Z,17.72
2022-08-03T00:20:48.972Z,17.63
2022-08-03T00:25:52.613Z,17.55
2022-08-03T00:30:56.358Z,17.59
2022-08-03T00:36:00.266Z,17.66
2022-08-03T00:41:03.694Z,17.66
2022-08-03T00:46:07.105Z,17.59
2022-08-03T00:51:10.933Z,17.53
2022-08-03T00:56:16.486Z,17.47
2022-08-03T01:01:19.956Z,17.40
2022-08-03T01:06:46.734Z,17.30
2022-08-03T01:12:10.025Z,17.22
2022-08-03T01:17:34.949Z,17.16
2022-08-03T01:22:41.293Z,17.16
2022-08-03T01:28:23.826Z,17.19
2022-08-03T01:33:37.621Z,17.16
2022-08-03T01:38:48.646Z,16.99
2022-08-03T01:44:27.548Z,16.79
2022-08-03T01:49:19.452Z,16.72
2022-08-03T01:54:26.334Z,16.65
2022-08-03T01:59:31.977Z,16.63
2022-08-03T02:04:37.907Z,16.64
2022-08-03T02:09:45.467Z,16.64
2022-08-03T02:14:50.528Z,16.65
2022-08-03T02:19:57.618Z,16.67
2022-08-03T02:25:01.031Z,16.58
2022-08-03T02:30:14.578Z,16.53
2022-08-03T02:35:23.222Z,16.52
2022-08-03T02:40:31.243Z,16.54
2022-08-03T02:45:45.527Z,16.57
2022-08-03T02:50:53.734Z,16.62
2022-08-03T02:55:58.575Z,16.67
2022-08-03T03:01:03.460Z,16.66
2022-08-03T03:06:08.962Z,16.60
2022-08-03T03:11:15.686Z,16.50
2022-08-03T03:16:20.325Z,16.45
2022-08-03T03:21:25.072Z,16.54
2022-08-03T03:26:29.218Z,16.69
2022-08-03T03:31:33.012Z,16.76
2022-08-03T03:36:36.546Z,16.74
2022-08-03T03:41:40.883Z,16.75
2022-08-03T03:46:46.948Z,16.79
2022-08-03T03:51:56.204Z,16.80
2022-08-03T03:56:59.619Z,16.89
2022-08-03T04:02:03.648Z,17.00
2022-08-03T04:07:25.799Z,17.12
2022-08-03T04:12:31.584Z,17.24
2022-08-03T04:17:36.892Z,17.28
2022-08-03T04:22:42.307Z,17.30
2022-08-03T04:28:08.221Z,17.29
2022-08-03T04:33:11.848Z,17.28
2022-08-03T04:38:20.104Z,17.24
2022-08-03T04:43:25.817Z,17.26
2022-08-03T04:48:29.880Z,17.33
2022-08-03T04:53:33.598Z,17.44
2022-08-03T04:58:37.108Z,17.48
2022-08-03T05:03:40.832Z,17.56
2022-08-03T05:08:46.935Z,17.66
2022-08-03T05:13:50.752Z,17.74
2022-08-03T05:18:54.659Z,17.82
2022-08-03T05:23:58.069Z,18.01
2022-08-03T05:29:01.795Z,18.26
2022-08-03T05:34:05.312Z,18.54
2022-08-03T05:39:08.722Z,19.00
2022-08-03T05:44:12.053Z,19.48
2022-08-03T05:49:15.601Z,19.90
2022-08-03T05:54:19.272Z,20.31
2022-08-03T05:59:38.115Z,20.62
2022-08-03T06:04:42.483Z,20.95
2022-08-03T06:10:35.774Z,21.25
2022-08-03T06:15:11.518Z,21.53
2022-08-03T06:20:21.614Z,21.71
2022-08-03T06:25:31.368Z,21.75
2022-08-03T06:30:34.985Z,21.71
2022-08-03T06:35:38.620Z,21.67
2022-08-03T06:40:45.911Z,21.75
2022-08-03T06:45:52.290Z,21.90
2022-08-03T06:50:55.701Z,21.97
2022-08-03T06:55:59.553Z,22.23
2022-08-03T07:01:03.091Z,22.56
2022-08-03T07:06:07.108Z,22.83
2022-08-03T07:11:10.541Z,23.10
2022-08-03T07:16:13.918Z,23.27
2022-08-03T07:21:17.618Z,23.33
2022-08-03T07:26:21.203Z,23.54
2022-08-03T07:31:25.092Z,23.66
2022-08-03T07:36:28.577Z,23.70
2022-08-03T07:41:32.235Z,24.07
2022-08-03T07:46:35.714Z,24.56
2022-08-03T07:51:39.776Z,25.00
2022-08-03T07:56:43.259Z,25.49
2022-08-03T08:01:46.666Z,25.83
2022-08-03T08:06:50.077Z,26.06
2022-08-03T08:11:53.438Z,26.23
2022-08-03T08:16:56.912Z,26.23
2022-08-03T08:22:02.600Z,26.16
2022-08-03T08:27:06.607Z,26.09
2022-08-03T08:32:11.651Z,26.11
2022-08-03T08:37:15.506Z,26.08
2022-08-03T08:42:19.198Z,26.04
2022-08-03T08:47:50.905Z,26.03
2022-08-03T08:52:56.487Z,26.11
2022-08-03T08:58:06.811Z,26.26
2022-08-03T09:03:10.340Z,26.43
2022-08-03T09:08:16.522Z,26.54
2022-08-03T09:13:20.371Z,26.46
2022-08-03T09:18:33.545Z,26.34
2022-08-03T09:24:03.897Z,26.28
2022-08-03T09:29:15.016Z,26.23
2022-08-03T09:34:20.393Z,26.46
2022-08-03T09:39:40.905Z,26.64
2022-08-03T09:44:51.802Z,26.81
2022-08-03T09:50:07.311Z,27.15
2022-08-03T09:56:30.961Z,27.48
2022-08-03T10:01:04.407Z,27.47
2022-08-03T10:06:22.769Z,27.61
2022-08-03T10:11:36.284Z,27.73
2022-08-03T10:16:46.943Z,27.81
2022-08-03T10:21:56.142Z,27.76
2022-08-03T10:27:07.753Z,27.84
2022-08-03T10:32:19.665Z,27.91
2022-08-03T10:37:28.217Z,27.91
2022-08-03T10:42:32.269Z,28.00
2022-08-03T10:47:37.071Z,28.15
2022-08-03T10:52:58.061Z,28.10
2022-08-03T10:58:10.780Z,28.23
2022-08-03T11:03:15.184Z,28.38
2022-08-03T11:08:26.164Z,28.31
2022-08-03T11:13:33.992Z,28.45
2022-08-03T11:18:56.740Z,28.65
2022-08-03T11:24:03.009Z,28.71
2022-08-03T11:29:31.599Z,28.80
2022-08-03T11:34:44.767Z,29.02
2022-08-03T11:39:51.322Z,29.29
2022-08-03T11:44:57.798Z,29.32
2022-08-03T11:50:02.362Z,29.27
2022-08-03T11:55:11.339Z,29.08
2022-08-03T12:00:32.593Z,28.86
2022-08-03T12:05:39.395Z,28.63
2022-08-03T12:10:50.311Z,28.49
2022-08-03T12:15:57.235Z,28.58
2022-08-03T12:21:14.268Z,28.86
2022-08-03T12:26:18.807Z,29.10
2022-08-03T12:31:22.324Z,29.08
2022-08-03T12:36:27.749Z,29.18
2022-08-03T12:41:38.069Z,29.16
2022-08-03T12:46:47.416Z,29.03
2022-08-03T12:51:51.444Z,28.99
2022-08-03T12:57:10.742Z,29.12
2022-08-03T13:02:24.153Z,29.29
2022-08-03T13:07:28.172Z,29.45
2022-08-03T13:12:32.060Z,29.50
2022-08-03T13:17:35.552Z,29.50
2022-08-03T13:22:43.130Z,29.28
2022-08-03T13:28:03.389Z,29.35
2022-08-03T13:33:09.823Z,29.08
2022-08-03T13:38:13.528Z,29.11
2022-08-03T13:43:18.830Z,29.27
2022-08-03T13:48:36.629Z,29.45
2022-08-03T13:53:41.431Z,29.56
2022-08-03T13:58:44.845Z,29.64
2022-08-03T14:03:52.871Z,29.66
2022-08-03T14:09:00.504Z,29.68
2022-08-03T14:14:04.269Z,29.70
2022-08-03T14:19:07.766Z,29.80
2022-08-03T14:24:11.584Z,29.76
2022-08-03T14:29:14.999Z,29.73
2022-08-03T14:34:18.362Z,29.60
2022-08-03T14:39:21.808Z,29.36
2022-08-03T14:44:25.164Z,29.09
2022-08-03T14:50:38.081Z,28.83
2022-08-03T14:54:51.988Z,28.92
2022-08-03T14:59:57.194Z,29.25
2022-08-03T15:05:00.866Z,29.41
2022-08-03T15:10:05.650Z,29.50
2022-08-03T15:15:10.253Z,29.56
2022-08-03T15:20:23.322Z,29.64
2022-08-03T15:26:04.032Z,29.74
2022-08-03T15:31:00.222Z,29.85
2022-08-03T15:36:05.395Z,29.96
2022-08-03T15:41:13.769Z,30.49
2022-08-03T15:46:29.218Z,31.16
2022-08-03T15:51:33.437Z,31.80
2022-08-03T15:56:37.054Z,32.22
2022-08-03T16:01:41.514Z,32.69
2022-08-03T16:06:45.215Z,33.15
2022-08-03T16:11:48.661Z,33.35
2022-08-03T16:16:55.924Z,33.40
2022-08-03T16:21:59.961Z,33.87
2022-08-03T16:27:04.602Z,34.50
2022-08-03T16:32:09.650Z,34.91
2022-08-03T16:37:37.158Z,35.02
2022-08-03T16:42:38.210Z,35.27
2022-08-03T16:47:41.912Z,35.29
2022-08-03T16:52:47.370Z,35.39
2022-08-03T16:57:58.687Z,35.48
2022-08-03T17:03:12.807Z,35.86
2022-08-03T17:08:26.928Z,35.43
2022-08-03T17:13:39.403Z,35.23
2022-08-03T17:18:56.957Z,35.33
2022-08-03T17:24:20.897Z,35.20
2022-08-03T17:29:29.921Z,35.18
2022-08-03T17:34:34.337Z,35.22
2022-08-03T17:45:06.617Z,34.92
2022-08-03T17:50:24.410Z,34.54
2022-08-03T17:55:57.534Z,33.74
2022-08-03T18:01:57.063Z,32.70
2022-08-03T18:06:55.630Z,31.28
2022-08-03T18:12:04.726Z,30.25
2022-08-03T18:17:17.866Z,29.30
2022-08-03T18:22:25.021Z,28.61
2022-08-03T18:27:45.553Z,28.00
2022-08-03T18:33:00.463Z,27.41
2022-08-03T18:38:05.102Z,26.96
2022-08-03T18:43:14.353Z,26.56
2022-08-03T18:48:48.802Z,26.19
2022-08-03T18:54:45.653Z,25.82
2022-08-03T18:59:55.830Z,25.49
2022-08-03T19:05:09.192Z,25.21
2022-08-03T19:10:16.396Z,24.97
2022-08-03T19:15:36.863Z,24.77
2022-08-03T19:20:46.925Z,24.56
2022-08-03T19:25:52.321Z,24.41
2022-08-03T19:31:02.559Z,24.30
2022-08-03T19:36:10.873Z,24.12
2022-08-03T19:41:19.189Z,23.95
2022-08-03T19:46:30.594Z,23.80
2022-08-03T19:52:01.745Z,23.56
2022-08-03T19:57:03.297Z,23.34
2022-08-03T20:02:09.534Z,23.21
2022-08-03T20:07:33.092Z,23.06
2022-08-03T20:12:39.949Z,22.93
2022-08-03T20:17:56.800Z,22.81
2022-08-03T20:23:07.989Z,22.59
2022-08-03T20:28:26.611Z,22.40
2022-08-03T20:33:48.662Z,22.26
2022-08-03T20:38:57.268Z,22.12
2022-08-03T20:44:02.393Z,21.96
2022-08-03T20:49:06.892Z,21.87
2022-08-03T20:54:29.288Z,21.71
2022-08-03T20:59:50.661Z,21.41
2022-08-03T21:04:55.188Z,21.25
2022-08-03T21:10:04.515Z,21.23
2022-08-03T21:16:06.673Z,21.18
2022-08-03T21:20:45.380Z,21.07
2022-08-03T21:25:51.002Z,20.89
2022-08-03T21:30:55.153Z,20.76
2022-08-03T21:35:59.267Z,20.65
2022-08-03T21:41:04.522Z,20.53
2022-08-03T21:46:08.991Z,20.35
2022-08-03T21:51:16.758Z,20.20
2022-08-03T21:56:22.269Z,20.15
2022-08-03T22:01:28.874Z,20.04
2022-08-03T22:06:42.692Z,19.98
2022-08-03T22:11:48.761Z,19.91
2022-08-03T22:16:52.379Z,19.86
2022-08-03T22:21:56.152Z,19.80
2022-08-03T22:27:22.127Z,19.78
2022-08-03T22:32:27.641Z,19.75
2022-08-03T22:37:32.865Z,19.73
2022-08-03T22:42:37.016Z,19.68
2022-08-03T22:47:41.512Z,19.58
2022-08-03T22:52:45.676Z,19.53
2022-08-03T22:57:55.445Z,19.53
2022-08-03T23:03:02.948Z,19.57
2022-08-03T23:08:09.427Z,19.59
2022-08-03T23:13:14.964Z,19.55
2022-08-03T23:18:21.123Z,19.43
2022-08-03T23:23:25.123Z,19.22
2022-08-03T23:28:32.003Z,19.12
2022-08-03T23:33:40.837Z,19.02
2022-08-03T23:38:45.269Z,18.95
2022-08-03T23:43:54.064Z,18.89
2022-08-03T23:49:00.009Z,18.82
2022-08-03T23:55:00.908Z,18.75
